sensor_id;sensor_type;location;lat;lon;timestamp;temperature;humidity
17795;DHT22;9021;50.882;4.326;2023-04-19T00:00:27;11.80;99.90
17795;DHT22;9021;50.882;4.326;2023-04-19T00:02:53;11.50;99.90
17795;DHT22;9021;50.882;4.326;2023-04-19T00:05:19;12.10;99.90
17795;DHT22;9021;50.882;4.326;2023-04-19T00:07:46;11.50;99.90
17795;DHT22;9021;50.882;4.326;2023-04-19T00:10:12;11.80;99.90
17795;DHT22;9021;50.882;4.326;2023-04-19T00:15:04;11.60;99.90
17795;DHT22;9021;50.882;4.326;2023-04-19T00:17:30;11.30;99.90
17795;DHT22;9021;50.882;4.326;2023-04-19T00:19:56;11.90;99.90
17795;DHT22;9021;50.882;4.326;2023-04-19T00:22:22;12.30;99.90
17795;DHT22;9021;50.882;4.326;2023-04-19T00:24:47;11.30;99.90
17795;DHT22;9021;50.882;4.326;2023-04-19T00:27:13;11.70;99.90
17795;DHT22;9021;50.882;4.326;2023-04-19T00:29:39;11.20;99.90
17795;DHT22;9021;50.882;4.326;2023-04-19T00:32:04;11.50;99.90
17795;DHT22;9021;50.882;4.326;2023-04-19T00:34:30;11.60;99.90
17795;DHT22;9021;50.882;4.326;2023-04-19T00:36:56;12.10;99.90
17795;DHT22;9021;50.882;4.326;2023-04-19T00:41:48;11.80;99.90
17795;DHT22;9021;50.882;4.326;2023-04-19T00:44:13;11.60;99.90
17795;DHT22;9021;50.882;4.326;2023-04-19T00:46:40;11.70;99.90
17795;DHT22;9021;50.882;4.326;2023-04-19T00:49:07;11.50;99.90
17795;DHT22;9021;50.882;4.326;2023-04-19T00:51:33;11.40;99.90
17795;DHT22;9021;50.882;4.326;2023-04-19T00:53:59;11.00;99.90
17795;DHT22;9021;50.882;4.326;2023-04-19T00:56:26;11.20;99.90
17795;DHT22;9021;50.882;4.326;2023-04-19T00:58:53;11.30;99.90
17795;DHT22;9021;50.882;4.326;2023-04-19T01:01:19;10.90;99.90
17795;DHT22;9021;50.882;4.326;2023-04-19T01:03:47;11.20;99.90
17795;DHT22;9021;50.882;4.326;2023-04-19T01:06:14;11.10;99.90
17795;DHT22;9021;50.882;4.326;2023-04-19T01:08:39;11.30;99.90
17795;DHT22;9021;50.882;4.326;2023-04-19T01:11:05;11.30;99.90
17795;DHT22;9021;50.882;4.326;2023-04-19T01:13:32;11.00;99.90
17795;DHT22;9021;50.882;4.326;2023-04-19T01:18:24;10.90;99.90
17795;DHT22;9021;50.882;4.326;2023-04-19T01:20:50;11.10;99.90
17795;DHT22;9021;50.882;4.326;2023-04-19T01:23:16;11.00;99.90
17795;DHT22;9021;50.882;4.326;2023-04-19T01:25:42;11.10;99.90
17795;DHT22;9021;50.882;4.326;2023-04-19T01:30:34;11.50;99.90
17795;DHT22;9021;50.882;4.326;2023-04-19T01:33:00;11.40;99.90
17795;DHT22;9021;50.882;4.326;2023-04-19T01:35:26;11.40;99.90
17795;DHT22;9021;50.882;4.326;2023-04-19T01:37:51;10.90;99.90
17795;DHT22;9021;50.882;4.326;2023-04-19T01:40:21;11.00;99.90
17795;DHT22;9021;50.882;4.326;2023-04-19T01:42:47;11.20;99.90
17795;DHT22;9021;50.882;4.326;2023-04-19T01:45:12;11.10;99.90
17795;DHT22;9021;50.882;4.326;2023-04-19T01:47:38;11.10;99.90
17795;DHT22;9021;50.882;4.326;2023-04-19T01:50:04;11.40;99.90
17795;DHT22;9021;50.882;4.326;2023-04-19T01:52:30;10.50;99.90
17795;DHT22;9021;50.882;4.326;2023-04-19T01:54:55;10.70;99.90
17795;DHT22;9021;50.882;4.326;2023-04-19T01:57:21;11.30;99.90
17795;DHT22;9021;50.882;4.326;2023-04-19T01:59:46;11.30;99.90
17795;DHT22;9021;50.882;4.326;2023-04-19T02:02:12;11.50;99.90
17795;DHT22;9021;50.882;4.326;2023-04-19T02:04:37;10.90;99.90
17795;DHT22;9021;50.882;4.326;2023-04-19T02:07:03;11.40;99.90
17795;DHT22;9021;50.882;4.326;2023-04-19T02:09:29;11.10;99.90
17795;DHT22;9021;50.882;4.326;2023-04-19T02:11:54;11.40;99.90
17795;DHT22;9021;50.882;4.326;2023-04-19T02:16:47;11.20;99.90
17795;DHT22;9021;50.882;4.326;2023-04-19T02:19:13;11.70;99.90
17795;DHT22;9021;50.882;4.326;2023-04-19T02:21:38;11.00;99.90
17795;DHT22;9021;50.882;4.326;2023-04-19T02:24:04;11.30;99.90
17795;DHT22;9021;50.882;4.326;2023-04-19T02:26:30;11.60;99.90
17795;DHT22;9021;50.882;4.326;2023-04-19T02:31:22;11.50;99.90
17795;DHT22;9021;50.882;4.326;2023-04-19T02:36:13;11.60;99.90
17795;DHT22;9021;50.882;4.326;2023-04-19T02:38:39;11.90;99.90
17795;DHT22;9021;50.882;4.326;2023-04-19T02:41:05;11.70;99.90
17795;DHT22;9021;50.882;4.326;2023-04-19T02:43:30;11.10;99.90
17795;DHT22;9021;50.882;4.326;2023-04-19T02:45:56;11.70;99.90
17795;DHT22;9021;50.882;4.326;2023-04-19T02:50:48;11.40;99.90
17795;DHT22;9021;50.882;4.326;2023-04-19T02:53:13;11.50;99.90
17795;DHT22;9021;50.882;4.326;2023-04-19T02:58:05;12.00;99.90
17795;DHT22;9021;50.882;4.326;2023-04-19T03:00:30;11.30;99.90
17795;DHT22;9021;50.882;4.326;2023-04-19T03:02:56;11.80;99.90
17795;DHT22;9021;50.882;4.326;2023-04-19T03:05:22;11.70;99.90
17795;DHT22;9021;50.882;4.326;2023-04-19T03:07:48;11.50;99.90
17795;DHT22;9021;50.882;4.326;2023-04-19T03:10:14;11.90;99.90
17795;DHT22;9021;50.882;4.326;2023-04-19T03:12:43;11.40;99.90
17795;DHT22;9021;50.882;4.326;2023-04-19T03:15:09;11.80;99.90
17795;DHT22;9021;50.882;4.326;2023-04-19T03:17:34;11.70;99.90
17795;DHT22;9021;50.882;4.326;2023-04-19T03:20:01;12.00;99.90
17795;DHT22;9021;50.882;4.326;2023-04-19T03:22:27;12.20;99.90
17795;DHT22;9021;50.882;4.326;2023-04-19T03:24:53;11.50;99.90
17795;DHT22;9021;50.882;4.326;2023-04-19T03:27:18;11.40;99.90
17795;DHT22;9021;50.882;4.326;2023-04-19T03:29:44;11.80;99.90
17795;DHT22;9021;50.882;4.326;2023-04-19T03:32:10;11.80;99.90
17795;DHT22;9021;50.882;4.326;2023-04-19T03:34:35;11.40;99.90
17795;DHT22;9021;50.882;4.326;2023-04-19T03:37:01;12.20;99.90
17795;DHT22;9021;50.882;4.326;2023-04-19T03:39:26;11.30;99.90
17795;DHT22;9021;50.882;4.326;2023-04-19T03:41:52;12.20;99.90
17795;DHT22;9021;50.882;4.326;2023-04-19T03:44:18;12.00;99.90
17795;DHT22;9021;50.882;4.326;2023-04-19T03:46:43;12.40;99.90
17795;DHT22;9021;50.882;4.326;2023-04-19T03:51:36;12.10;99.90
17795;DHT22;9021;50.882;4.326;2023-04-19T03:54:02;12.20;99.90
17795;DHT22;9021;50.882;4.326;2023-04-19T03:56:28;12.10;99.90
17795;DHT22;9021;50.882;4.326;2023-04-19T03:58:53;11.80;99.90
17795;DHT22;9021;50.882;4.326;2023-04-19T04:01:20;11.50;99.90
17795;DHT22;9021;50.882;4.326;2023-04-19T04:03:46;12.70;99.90
17795;DHT22;9021;50.882;4.326;2023-04-19T04:06:11;11.40;99.90
17795;DHT22;9021;50.882;4.326;2023-04-19T04:08:37;12.10;99.90
17795;DHT22;9021;50.882;4.326;2023-04-19T04:11:02;11.40;99.90
17795;DHT22;9021;50.882;4.326;2023-04-19T04:15:54;11.60;99.90
17795;DHT22;9021;50.882;4.326;2023-04-19T04:18:20;12.00;99.90
17795;DHT22;9021;50.882;4.326;2023-04-19T04:20:46;12.30;99.90
17795;DHT22;9021;50.882;4.326;2023-04-19T04:23:11;11.70;99.90
17795;DHT22;9021;50.882;4.326;2023-04-19T04:25:38;11.20;99.90
17795;DHT22;9021;50.882;4.326;2023-04-19T04:28:04;11.80;99.90
17795;DHT22;9021;50.882;4.326;2023-04-19T04:30:31;11.50;99.90
17795;DHT22;9021;50.882;4.326;2023-04-19T04:32:56;11.40;99.90
17795;DHT22;9021;50.882;4.326;2023-04-19T04:40:18;11.90;99.90
17795;DHT22;9021;50.882;4.326;2023-04-19T04:45:10;12.10;99.90
17795;DHT22;9021;50.882;4.326;2023-04-19T04:47:36;11.30;99.90
17795;DHT22;9021;50.882;4.326;2023-04-19T04:50:02;11.70;99.90
17795;DHT22;9021;50.882;4.326;2023-04-19T04:52:28;11.50;99.90
17795;DHT22;9021;50.882;4.326;2023-04-19T04:57:20;11.00;99.90
17795;DHT22;9021;50.882;4.326;2023-04-19T05:02:13;10.80;99.90
17795;DHT22;9021;50.882;4.326;2023-04-19T05:04:39;11.20;99.90
17795;DHT22;9021;50.882;4.326;2023-04-19T05:07:05;12.10;99.90
17795;DHT22;9021;50.882;4.326;2023-04-19T05:09:30;11.40;99.90
17795;DHT22;9021;50.882;4.326;2023-04-19T05:16:48;11.30;99.90
17795;DHT22;9021;50.882;4.326;2023-04-19T05:21:40;12.30;99.90
17795;DHT22;9021;50.882;4.326;2023-04-19T05:26:34;12.70;99.90
17795;DHT22;9021;50.882;4.326;2023-04-19T05:29:00;12.10;99.90
17795;DHT22;9021;50.882;4.326;2023-04-19T05:31:25;11.90;99.90
17795;DHT22;9021;50.882;4.326;2023-04-19T05:33:51;11.70;99.90
17795;DHT22;9021;50.882;4.326;2023-04-19T05:36:16;12.10;99.90
17795;DHT22;9021;50.882;4.326;2023-04-19T05:38:42;11.50;99.90
17795;DHT22;9021;50.882;4.326;2023-04-19T05:41:07;9.60;99.90
17795;DHT22;9021;50.882;4.326;2023-04-19T05:43:35;11.70;99.90
17795;DHT22;9021;50.882;4.326;2023-04-19T05:46:01;11.50;99.90
17795;DHT22;9021;50.882;4.326;2023-04-19T05:50:53;11.30;99.90
17795;DHT22;9021;50.882;4.326;2023-04-19T05:53:20;12.00;99.90
17795;DHT22;9021;50.882;4.326;2023-04-19T05:58:13;12.30;99.90
17795;DHT22;9021;50.882;4.326;2023-04-19T06:00:39;11.70;99.90
17795;DHT22;9021;50.882;4.326;2023-04-19T06:03:06;12.30;99.90
17795;DHT22;9021;50.882;4.326;2023-04-19T06:05:31;12.90;99.90
17795;DHT22;9021;50.882;4.326;2023-04-19T06:07:57;12.30;99.90
17795;DHT22;9021;50.882;4.326;2023-04-19T06:10:23;13.50;99.90
17795;DHT22;9021;50.882;4.326;2023-04-19T06:15:15;14.10;99.90
17795;DHT22;9021;50.882;4.326;2023-04-19T06:20:07;13.70;99.90
17795;DHT22;9021;50.882;4.326;2023-04-19T06:25:00;13.80;99.90
17795;DHT22;9021;50.882;4.326;2023-04-19T06:27:26;12.90;99.90
17795;DHT22;9021;50.882;4.326;2023-04-19T06:29:52;13.30;99.90
17795;DHT22;9021;50.882;4.326;2023-04-19T06:34:43;13.20;99.90
17795;DHT22;9021;50.882;4.326;2023-04-19T06:37:09;13.50;99.90
17795;DHT22;9021;50.882;4.326;2023-04-19T06:39:35;13.30;99.90
17795;DHT22;9021;50.882;4.326;2023-04-19T06:42:00;13.30;99.90
17795;DHT22;9021;50.882;4.326;2023-04-19T06:44:26;13.00;99.90
17795;DHT22;9021;50.882;4.326;2023-04-19T06:46:52;13.50;99.90
17795;DHT22;9021;50.882;4.326;2023-04-19T06:49:18;14.30;99.90
17795;DHT22;9021;50.882;4.326;2023-04-19T06:51:43;14.10;99.90
17795;DHT22;9021;50.882;4.326;2023-04-19T06:54:09;14.40;99.90
17795;DHT22;9021;50.882;4.326;2023-04-19T06:56:39;14.50;99.90
17795;DHT22;9021;50.882;4.326;2023-04-19T06:59:06;15.80;99.90
17795;DHT22;9021;50.882;4.326;2023-04-19T07:01:32;16.40;99.90
17795;DHT22;9021;50.882;4.326;2023-04-19T07:03:57;17.00;99.90
17795;DHT22;9021;50.882;4.326;2023-04-19T07:06:23;16.80;99.90
17795;DHT22;9021;50.882;4.326;2023-04-19T07:08:49;17.50;99.90
17795;DHT22;9021;50.882;4.326;2023-04-19T07:13:40;17.10;98.40
17795;DHT22;9021;50.882;4.326;2023-04-19T07:16:09;17.20;98.80
17795;DHT22;9021;50.882;4.326;2023-04-19T07:18:35;18.30;99.30
17795;DHT22;9021;50.882;4.326;2023-04-19T07:21:00;16.30;99.90
17795;DHT22;9021;50.882;4.326;2023-04-19T07:23:26;15.80;99.70
17795;DHT22;9021;50.882;4.326;2023-04-19T07:25:51;15.90;99.90
17795;DHT22;9021;50.882;4.326;2023-04-19T07:28:17;16.40;99.90
17795;DHT22;9021;50.882;4.326;2023-04-19T07:30:43;16.60;99.90
17795;DHT22;9021;50.882;4.326;2023-04-19T07:33:10;16.60;99.00
17795;DHT22;9021;50.882;4.326;2023-04-19T07:35:38;16.20;99.90
17795;DHT22;9021;50.882;4.326;2023-04-19T07:38:04;16.70;99.90
17795;DHT22;9021;50.882;4.326;2023-04-19T07:40:29;16.90;99.90
17795;DHT22;9021;50.882;4.326;2023-04-19T07:42:55;16.80;99.90
17795;DHT22;9021;50.882;4.326;2023-04-19T07:45:21;17.20;99.00
17795;DHT22;9021;50.882;4.326;2023-04-19T07:47:47;18.60;98.90
17795;DHT22;9021;50.882;4.326;2023-04-19T07:50:12;18.20;96.80
17795;DHT22;9021;50.882;4.326;2023-04-19T07:52:38;18.80;95.70
17795;DHT22;9021;50.882;4.326;2023-04-19T07:55:04;20.50;96.30
17795;DHT22;9021;50.882;4.326;2023-04-19T07:57:30;20.40;93.70
17795;DHT22;9021;50.882;4.326;2023-04-19T07:59:56;20.90;94.60
17795;DHT22;9021;50.882;4.326;2023-04-19T08:02:25;21.40;94.10
17795;DHT22;9021;50.882;4.326;2023-04-19T08:04:51;21.20;92.00
17795;DHT22;9021;50.882;4.326;2023-04-19T08:07:17;21.30;93.70
17795;DHT22;9021;50.882;4.326;2023-04-19T08:09:42;21.00;91.80
17795;DHT22;9021;50.882;4.326;2023-04-19T08:12:08;21.30;91.80
17795;DHT22;9021;50.882;4.326;2023-04-19T08:14:33;21.70;91.60
17795;DHT22;9021;50.882;4.326;2023-04-19T08:16:59;22.00;90.80
17795;DHT22;9021;50.882;4.326;2023-04-19T08:19:25;21.90;91.20
17795;DHT22;9021;50.882;4.326;2023-04-19T08:21:50;21.80;90.50
17795;DHT22;9021;50.882;4.326;2023-04-19T08:24:16;20.70;93.40
17795;DHT22;9021;50.882;4.326;2023-04-19T08:26:42;20.80;91.50
17795;DHT22;9021;50.882;4.326;2023-04-19T08:29:07;19.60;94.40
17795;DHT22;9021;50.882;4.326;2023-04-19T08:31:33;19.40;92.40
17795;DHT22;9021;50.882;4.326;2023-04-19T08:33:58;18.70;93.30
17795;DHT22;9021;50.882;4.326;2023-04-19T08:36:24;18.30;93.80
17795;DHT22;9021;50.882;4.326;2023-04-19T08:38:52;18.20;93.80
17795;DHT22;9021;50.882;4.326;2023-04-19T08:41:18;17.30;96.00
17795;DHT22;9021;50.882;4.326;2023-04-19T08:43:44;17.60;94.80
17795;DHT22;9021;50.882;4.326;2023-04-19T08:46:11;17.60;95.20
17795;DHT22;9021;50.882;4.326;2023-04-19T08:48:37;17.80;95.30
17795;DHT22;9021;50.882;4.326;2023-04-19T08:51:03;18.00;95.30
17795;DHT22;9021;50.882;4.326;2023-04-19T08:53:29;17.40;94.90
17795;DHT22;9021;50.882;4.326;2023-04-19T08:55:55;16.70;97.50
17795;DHT22;9021;50.882;4.326;2023-04-19T08:58:24;17.20;97.10
17795;DHT22;9021;50.882;4.326;2023-04-19T09:00:50;17.00;97.80
17795;DHT22;9021;50.882;4.326;2023-04-19T09:03:16;16.50;98.40
17795;DHT22;9021;50.882;4.326;2023-04-19T09:05:41;16.80;96.40
17795;DHT22;9021;50.882;4.326;2023-04-19T09:08:25;16.90;98.90
17795;DHT22;9021;50.882;4.326;2023-04-19T09:10:53;17.00;97.80
17795;DHT22;9021;50.882;4.326;2023-04-19T09:13:19;17.10;98.40
17795;DHT22;9021;50.882;4.326;2023-04-19T09:15:45;17.30;98.00
17795;DHT22;9021;50.882;4.326;2023-04-19T09:18:11;17.50;96.90
17795;DHT22;9021;50.882;4.326;2023-04-19T09:20:38;17.10;97.80
17795;DHT22;9021;50.882;4.326;2023-04-19T09:23:06;16.80;97.70
17795;DHT22;9021;50.882;4.326;2023-04-19T09:25:32;17.70;97.30
17795;DHT22;9021;50.882;4.326;2023-04-19T09:28:14;17.60;97.40
17795;DHT22;9021;50.882;4.326;2023-04-19T09:30:40;17.90;97.80
17795;DHT22;9021;50.882;4.326;2023-04-19T09:33:06;17.40;95.80
17795;DHT22;9021;50.882;4.326;2023-04-19T09:35:45;17.90;97.40
17795;DHT22;9021;50.882;4.326;2023-04-19T09:38:14;17.90;96.90
17795;DHT22;9021;50.882;4.326;2023-04-19T09:40:40;17.50;94.80
17795;DHT22;9021;50.882;4.326;2023-04-19T09:43:07;17.10;96.50
17795;DHT22;9021;50.882;4.326;2023-04-19T09:45:43;17.40;97.10
17795;DHT22;9021;50.882;4.326;2023-04-19T09:48:10;17.60;94.60
17795;DHT22;9021;50.882;4.326;2023-04-19T09:50:54;17.60;94.60
17795;DHT22;9021;50.882;4.326;2023-04-19T09:53:22;17.80;94.20
17795;DHT22;9021;50.882;4.326;2023-04-19T09:55:48;17.80;94.50
17795;DHT22;9021;50.882;4.326;2023-04-19T09:58:17;18.00;94.40
17795;DHT22;9021;50.882;4.326;2023-04-19T10:00:45;18.40;94.20
17795;DHT22;9021;50.882;4.326;2023-04-19T10:03:15;18.30;93.40
17795;DHT22;9021;50.882;4.326;2023-04-19T10:05:42;18.30;93.80
17795;DHT22;9021;50.882;4.326;2023-04-19T10:08:10;18.40;95.40
17795;DHT22;9021;50.882;4.326;2023-04-19T10:10:36;18.20;94.70
17795;DHT22;9021;50.882;4.326;2023-04-19T10:13:06;18.00;94.00
17795;DHT22;9021;50.882;4.326;2023-04-19T10:15:42;17.90;95.10
17795;DHT22;9021;50.882;4.326;2023-04-19T10:18:08;18.20;93.80
17795;DHT22;9021;50.882;4.326;2023-04-19T10:25:47;18.40;92.60
17795;DHT22;9021;50.882;4.326;2023-04-19T10:28:14;18.40;93.70
17795;DHT22;9021;50.882;4.326;2023-04-19T10:31:10;18.50;94.40
17795;DHT22;9021;50.882;4.326;2023-04-19T10:33:37;18.90;94.20
17795;DHT22;9021;50.882;4.326;2023-04-19T10:36:03;19.20;93.60
17795;DHT22;9021;50.882;4.326;2023-04-19T10:38:39;19.30;94.70
17795;DHT22;9021;50.882;4.326;2023-04-19T10:41:09;19.00;93.30
17795;DHT22;9021;50.882;4.326;2023-04-19T10:43:46;19.70;92.80
17795;DHT22;9021;50.882;4.326;2023-04-19T10:48:57;19.30;91.80
17795;DHT22;9021;50.882;4.326;2023-04-19T10:51:26;21.70;92.70
17795;DHT22;9021;50.882;4.326;2023-04-19T10:54:03;20.30;91.00
17795;DHT22;9021;50.882;4.326;2023-04-19T11:01:44;22.80;89.30
17795;DHT22;9021;50.882;4.326;2023-04-19T11:09:24;21.20;85.90
17795;DHT22;9021;50.882;4.326;2023-04-19T11:11:57;20.60;87.90
17795;DHT22;9021;50.882;4.326;2023-04-19T11:14:23;20.50;90.20
17795;DHT22;9021;50.882;4.326;2023-04-19T11:16:49;20.50;91.40
17795;DHT22;9021;50.882;4.326;2023-04-19T11:19:15;20.80;88.90
17795;DHT22;9021;50.882;4.326;2023-04-19T11:21:41;23.20;89.20
17795;DHT22;9021;50.882;4.326;2023-04-19T11:24:09;22.80;85.10
17795;DHT22;9021;50.882;4.326;2023-04-19T11:26:35;22.70;83.50
17795;DHT22;9021;50.882;4.326;2023-04-19T11:29:01;22.90;83.30
17795;DHT22;9021;50.882;4.326;2023-04-19T11:31:27;23.00;82.70
17795;DHT22;9021;50.882;4.326;2023-04-19T11:33:53;23.60;81.30
17795;DHT22;9021;50.882;4.326;2023-04-19T11:36:19;25.20;80.70
17795;DHT22;9021;50.882;4.326;2023-04-19T11:38:48;26.20;77.40
17795;DHT22;9021;50.882;4.326;2023-04-19T11:41:13;26.80;75.40
17795;DHT22;9021;50.882;4.326;2023-04-19T11:43:39;27.40;74.60
17795;DHT22;9021;50.882;4.326;2023-04-19T11:46:09;28.10;73.30
17795;DHT22;9021;50.882;4.326;2023-04-19T11:48:35;28.40;71.20
17795;DHT22;9021;50.882;4.326;2023-04-19T11:51:01;29.40;70.00
17795;DHT22;9021;50.882;4.326;2023-04-19T11:53:29;29.30;68.50
17795;DHT22;9021;50.882;4.326;2023-04-19T11:56:05;29.00;68.50
17795;DHT22;9021;50.882;4.326;2023-04-19T11:58:39;28.60;67.90
17795;DHT22;9021;50.882;4.326;2023-04-19T12:01:12;27.90;67.20
17795;DHT22;9021;50.882;4.326;2023-04-19T12:03:54;26.90;67.60
17795;DHT22;9021;50.882;4.326;2023-04-19T12:06:23;26.70;68.30
17795;DHT22;9021;50.882;4.326;2023-04-19T12:08:51;27.50;67.80
17795;DHT22;9021;50.882;4.326;2023-04-19T12:11:18;27.50;66.90
17795;DHT22;9021;50.882;4.326;2023-04-19T12:13:44;27.60;66.60
17795;DHT22;9021;50.882;4.326;2023-04-19T12:16:10;27.90;66.10
17795;DHT22;9021;50.882;4.326;2023-04-19T12:18:43;27.50;65.90
17795;DHT22;9021;50.882;4.326;2023-04-19T12:21:10;27.20;66.00
17795;DHT22;9021;50.882;4.326;2023-04-19T12:23:37;27.10;65.10
17795;DHT22;9021;50.882;4.326;2023-04-19T12:26:06;27.70;65.30
17795;DHT22;9021;50.882;4.326;2023-04-19T12:28:32;28.60;64.20
17795;DHT22;9021;50.882;4.326;2023-04-19T12:30:57;28.60;64.00
17795;DHT22;9021;50.882;4.326;2023-04-19T12:33:23;28.80;62.90
17795;DHT22;9021;50.882;4.326;2023-04-19T12:35:49;29.10;63.00
17795;DHT22;9021;50.882;4.326;2023-04-19T12:38:14;29.50;62.50
17795;DHT22;9021;50.882;4.326;2023-04-19T12:40:40;28.80;60.70
17795;DHT22;9021;50.882;4.326;2023-04-19T12:43:06;28.60;61.20
17795;DHT22;9021;50.882;4.326;2023-04-19T12:45:34;27.90;62.60
17795;DHT22;9021;50.882;4.326;2023-04-19T12:48:00;27.10;62.10
17795;DHT22;9021;50.882;4.326;2023-04-19T12:50:25;26.60;61.40
17795;DHT22;9021;50.882;4.326;2023-04-19T12:52:51;25.80;61.10
17795;DHT22;9021;50.882;4.326;2023-04-19T12:55:18;25.20;64.10
17795;DHT22;9021;50.882;4.326;2023-04-19T12:57:43;25.10;64.00
17795;DHT22;9021;50.882;4.326;2023-04-19T13:00:10;25.20;62.80
17795;DHT22;9021;50.882;4.326;2023-04-19T13:02:36;25.20;64.20
17795;DHT22;9021;50.882;4.326;2023-04-19T13:05:01;25.10;62.30
17795;DHT22;9021;50.882;4.326;2023-04-19T13:07:29;24.80;63.50
17795;DHT22;9021;50.882;4.326;2023-04-19T13:09:55;24.60;61.80
17795;DHT22;9021;50.882;4.326;2023-04-19T13:12:21;24.50;62.60
17795;DHT22;9021;50.882;4.326;2023-04-19T13:14:48;23.20;63.30
17795;DHT22;9021;50.882;4.326;2023-04-19T13:17:16;23.60;61.50
17795;DHT22;9021;50.882;4.326;2023-04-19T13:19:41;23.20;61.60
17795;DHT22;9021;50.882;4.326;2023-04-19T13:22:07;22.50;64.00
17795;DHT22;9021;50.882;4.326;2023-04-19T13:24:32;22.50;61.70
17795;DHT22;9021;50.882;4.326;2023-04-19T13:26:58;22.40;63.80
17795;DHT22;9021;50.882;4.326;2023-04-19T13:29:24;22.50;64.80
17795;DHT22;9021;50.882;4.326;2023-04-19T13:31:49;22.40;60.90
17795;DHT22;9021;50.882;4.326;2023-04-19T13:34:15;22.10;60.60
17795;DHT22;9021;50.882;4.326;2023-04-19T13:36:41;21.80;63.00
17795;DHT22;9021;50.882;4.326;2023-04-19T13:39:07;21.70;63.10
17795;DHT22;9021;50.882;4.326;2023-04-19T13:41:32;21.50;59.40
17795;DHT22;9021;50.882;4.326;2023-04-19T13:46:24;21.60;61.00
17795;DHT22;9021;50.882;4.326;2023-04-19T13:48:49;21.60;63.50
17795;DHT22;9021;50.882;4.326;2023-04-19T13:51:15;21.60;63.00
17795;DHT22;9021;50.882;4.326;2023-04-19T13:53:40;21.40;58.80
17795;DHT22;9021;50.882;4.326;2023-04-19T13:56:06;21.10;63.10
17795;DHT22;9021;50.882;4.326;2023-04-19T13:58:37;21.00;61.10
17795;DHT22;9021;50.882;4.326;2023-04-19T14:01:02;21.00;62.70
17795;DHT22;9021;50.882;4.326;2023-04-19T14:03:29;21.10;59.10
17795;DHT22;9021;50.882;4.326;2023-04-19T14:05:55;20.90;60.70
17795;DHT22;9021;50.882;4.326;2023-04-19T14:08:21;20.00;61.50
17795;DHT22;9021;50.882;4.326;2023-04-19T14:13:12;20.80;57.90
17795;DHT22;9021;50.882;4.326;2023-04-19T14:15:38;20.50;60.90
17795;DHT22;9021;50.882;4.326;2023-04-19T14:18:04;20.60;58.00
17795;DHT22;9021;50.882;4.326;2023-04-19T14:20:29;20.80;59.50
17795;DHT22;9021;50.882;4.326;2023-04-19T14:22:55;21.10;58.20
17795;DHT22;9021;50.882;4.326;2023-04-19T14:25:23;21.90;61.10
17795;DHT22;9021;50.882;4.326;2023-04-19T14:27:49;21.50;58.20
17795;DHT22;9021;50.882;4.326;2023-04-19T14:30:14;21.20;58.20
17795;DHT22;9021;50.882;4.326;2023-04-19T14:32:40;21.30;61.90
17795;DHT22;9021;50.882;4.326;2023-04-19T14:35:06;21.00;61.60
17795;DHT22;9021;50.882;4.326;2023-04-19T14:37:34;21.50;59.30
17795;DHT22;9021;50.882;4.326;2023-04-19T14:39:59;21.80;62.10
17795;DHT22;9021;50.882;4.326;2023-04-19T14:44:51;21.10;60.90
17795;DHT22;9021;50.882;4.326;2023-04-19T14:47:17;21.90;59.90
17795;DHT22;9021;50.882;4.326;2023-04-19T14:49:43;21.40;58.10
17795;DHT22;9021;50.882;4.326;2023-04-19T14:52:09;20.80;60.00
17795;DHT22;9021;50.882;4.326;2023-04-19T14:54:35;20.30;57.80
17795;DHT22;9021;50.882;4.326;2023-04-19T14:57:01;20.60;60.70
17795;DHT22;9021;50.882;4.326;2023-04-19T14:59:27;22.80;61.50
17795;DHT22;9021;50.882;4.326;2023-04-19T15:01:53;20.70;57.90
17795;DHT22;9021;50.882;4.326;2023-04-19T15:04:18;20.80;60.50
17795;DHT22;9021;50.882;4.326;2023-04-19T15:06:44;21.70;63.20
17795;DHT22;9021;50.882;4.326;2023-04-19T15:09:10;20.90;60.90
17795;DHT22;9021;50.882;4.326;2023-04-19T15:11:38;20.80;55.70
17795;DHT22;9021;50.882;4.326;2023-04-19T15:14:04;20.80;58.50
17795;DHT22;9021;50.882;4.326;2023-04-19T15:16:29;20.80;57.00
17795;DHT22;9021;50.882;4.326;2023-04-19T15:18:55;20.80;61.00
17795;DHT22;9021;50.882;4.326;2023-04-19T15:21:21;20.50;59.80
17795;DHT22;9021;50.882;4.326;2023-04-19T15:23:47;20.90;56.50
17795;DHT22;9021;50.882;4.326;2023-04-19T15:26:13;21.10;59.00
17795;DHT22;9021;50.882;4.326;2023-04-19T15:28:39;20.20;60.10
17795;DHT22;9021;50.882;4.326;2023-04-19T15:31:06;20.40;57.90
17795;DHT22;9021;50.882;4.326;2023-04-19T15:33:33;20.60;58.60
17795;DHT22;9021;50.882;4.326;2023-04-19T15:36:00;18.20;57.70
17795;DHT22;9021;50.882;4.326;2023-04-19T15:38:28;20.20;60.20
17795;DHT22;9021;50.882;4.326;2023-04-19T15:40:55;20.80;57.40
17795;DHT22;9021;50.882;4.326;2023-04-19T15:43:21;20.40;54.90
17795;DHT22;9021;50.882;4.326;2023-04-19T15:45:47;20.30;54.20
17795;DHT22;9021;50.882;4.326;2023-04-19T15:48:13;19.90;57.30
17795;DHT22;9021;50.882;4.326;2023-04-19T15:50:38;20.00;57.60
17795;DHT22;9021;50.882;4.326;2023-04-19T15:53:05;19.30;56.50
17795;DHT22;9021;50.882;4.326;2023-04-19T15:55:31;20.00;55.60
17795;DHT22;9021;50.882;4.326;2023-04-19T15:57:58;19.50;57.60
17795;DHT22;9021;50.882;4.326;2023-04-19T16:00:24;19.60;57.80
17795;DHT22;9021;50.882;4.326;2023-04-19T16:02:51;19.00;57.60
17795;DHT22;9021;50.882;4.326;2023-04-19T16:05:16;19.40;60.00
17795;DHT22;9021;50.882;4.326;2023-04-19T16:07:42;19.30;57.00
17795;DHT22;9021;50.882;4.326;2023-04-19T16:10:09;19.70;59.90
17795;DHT22;9021;50.882;4.326;2023-04-19T16:12:34;20.20;61.20
17795;DHT22;9021;50.882;4.326;2023-04-19T16:15:00;20.40;61.30
17795;DHT22;9021;50.882;4.326;2023-04-19T16:17:26;19.40;58.50
17795;DHT22;9021;50.882;4.326;2023-04-19T16:19:52;19.90;59.30
17795;DHT22;9021;50.882;4.326;2023-04-19T16:22:17;20.00;62.10
17795;DHT22;9021;50.882;4.326;2023-04-19T16:24:43;19.80;58.80
17795;DHT22;9021;50.882;4.326;2023-04-19T16:29:36;19.40;56.00
17795;DHT22;9021;50.882;4.326;2023-04-19T16:32:03;19.70;59.40
17795;DHT22;9021;50.882;4.326;2023-04-19T16:34:29;19.40;56.20
17795;DHT22;9021;50.882;4.326;2023-04-19T16:36:54;19.40;57.10
17795;DHT22;9021;50.882;4.326;2023-04-19T16:39:20;19.30;59.50
17795;DHT22;9021;50.882;4.326;2023-04-19T16:41:46;19.30;57.00
17795;DHT22;9021;50.882;4.326;2023-04-19T16:44:11;19.30;58.30
17795;DHT22;9021;50.882;4.326;2023-04-19T16:46:37;19.20;58.60
17795;DHT22;9021;50.882;4.326;2023-04-19T16:49:03;19.00;55.60
17795;DHT22;9021;50.882;4.326;2023-04-19T16:53:54;17.70;60.00
17795;DHT22;9021;50.882;4.326;2023-04-19T16:56:20;18.20;61.00
17795;DHT22;9021;50.882;4.326;2023-04-19T16:58:46;18.20;57.70
17795;DHT22;9021;50.882;4.326;2023-04-19T17:01:13;17.70;59.80
17795;DHT22;9021;50.882;4.326;2023-04-19T17:03:38;18.30;60.40
17795;DHT22;9021;50.882;4.326;2023-04-19T17:06:04;18.50;61.40
17795;DHT22;9021;50.882;4.326;2023-04-19T17:08:31;18.00;62.20
17795;DHT22;9021;50.882;4.326;2023-04-19T17:10:56;17.80;60.90
17795;DHT22;9021;50.882;4.326;2023-04-19T17:15:51;18.10;63.30
17795;DHT22;9021;50.882;4.326;2023-04-19T17:18:17;17.50;61.10